Time;durP1;ratioP1;P1;durP2;ratioP2;P2;SDS_P1;SDS_P2;PMS_P1;PMS_P2;Temp;Humidity;BMP_temperature;BMP_pressure;BME280_temperature;BME280_humidity;BME280_pressure;Samples;Min_cycle;Max_cycle;Signal;HPM_P1;HPM_P2
2023/11/18 00:01:44;;;;;;;0.80;0.80;;;;;;;5.04;89.54;99373.56;4978962;28;20264;-75
2023/11/18 00:04:15;;;;;;;0.80;0.80;;;;;;;4.89;89.43;99369.19;4979134;28;20141;-74
2023/11/18 00:06:44;;;;;;;0.70;0.70;;;;;;;4.88;90.03;99375.25;4976133;28;20408;-74
2023/11/18 00:09:14;;;;;;;0.70;0.70;;;;;;;4.92;90.64;99365.78;4992147;28;20041;-76
2023/11/18 00:11:40;;;;;;;0.80;0.80;;;;;;;4.96;90.29;99372.19;4977872;28;20030;-76
2023/11/18 00:14:07;;;;;;;0.70;0.70;;;;;;;4.85;90.47;99374.19;4978459;28;20041;-76
2023/11/18 00:16:32;;;;;;;0.73;0.73;;;;;;;4.83;90.91;99382.00;4982695;28;20507;-76
2023/11/18 00:19:00;;;;;;;0.80;0.80;;;;;;;4.79;91.01;99380.00;4977570;28;20038;-76
2023/11/18 00:21:25;;;;;;;0.80;0.80;;;;;;;4.88;90.87;99380.53;4978128;28;20464;-76
2023/11/18 00:23:51;;;;;;;0.80;0.80;;;;;;;5.00;89.99;99376.84;4976766;28;20041;-76
2023/11/18 00:26:16;;;;;;;0.70;0.70;;;;;;;4.96;90.54;99378.38;4979000;28;20035;-76
2023/11/18 00:28:44;;;;;;;0.80;0.80;;;;;;;5.04;90.48;99389.44;4975883;28;20049;-76
2023/11/18 00:31:10;;;;;;;0.80;0.80;;;;;;;5.14;90.32;99389.19;4991047;28;20411;-76
2023/11/18 00:33:35;;;;;;;0.82;0.82;;;;;;;5.14;90.09;99387.44;4976287;28;20400;-76
2023/11/18 00:36:03;;;;;;;0.70;0.70;;;;;;;5.20;90.40;99389.53;4995264;28;20169;-76
2023/11/18 00:38:28;;;;;;;0.80;0.80;;;;;;;5.21;89.84;99386.06;4977250;28;20164;-75
2023/11/18 00:40:53;;;;;;;0.80;0.80;;;;;;;5.37;89.62;99383.56;4982770;28;20737;-75
2023/11/18 00:43:19;;;;;;;0.80;0.80;;;;;;;5.39;89.65;99387.19;4994993;28;20038;-75
2023/11/18 00:45:44;;;;;;;0.80;0.80;;;;;;;5.43;88.91;99380.34;4992758;28;20401;-75
2023/11/18 00:48:10;;;;;;;0.80;0.80;;;;;;;5.29;88.41;99376.88;4977501;28;20045;-75
2023/11/18 00:50:35;;;;;;;0.80;0.80;;;;;;;5.24;89.06;99377.44;4993006;28;20034;-75
2023/11/18 00:53:01;;;;;;;0.73;0.73;;;;;;;5.40;87.78;99375.78;4974780;28;20038;-75
2023/11/18 00:55:26;;;;;;;0.70;0.70;;;;;;;5.29;88.56;99373.31;4977516;28;20134;-75
2023/11/18 00:57:52;;;;;;;0.80;0.80;;;;;;;5.39;88.07;99378.34;4974903;28;20512;-75
2023/11/18 01:00:21;;;;;;;0.77;0.77;;;;;;;5.26;88.65;99375.78;4977231;28;20108;-75
2023/11/18 01:02:49;;;;;;;0.80;0.80;;;;;;;5.18;88.99;99380.63;4975295;28;20045;-75
2023/11/18 01:05:15;;;;;;;0.88;0.88;;;;;;;5.24;88.92;99380.97;4981905;28;20027;-75
2023/11/18 01:07:41;;;;;;;0.80;0.80;;;;;;;5.25;88.78;99388.09;4992539;28;20050;-75
2023/11/18 01:10:09;;;;;;;0.85;0.85;;;;;;;5.50;87.78;99390.47;4975944;28;20037;-75
2023/11/18 01:12:35;;;;;;;0.80;0.80;;;;;;;5.42;87.49;99390.84;4974553;28;20045;-75
2023/11/18 01:15:01;;;;;;;0.90;0.90;;;;;;;5.34;87.76;99391.28;4981986;28;20046;-75
2023/11/18 01:17:26;;;;;;;0.90;0.90;;;;;;;5.54;87.30;99391.56;4978584;28;20129;-75
2023/11/18 01:19:52;;;;;;;0.80;0.80;;;;;;;5.37;87.63;99401.16;4975055;28;20034;-75
2023/11/18 01:22:18;;;;;;;0.80;0.80;;;;;;;5.47;88.09;99392.03;4974438;28;20058;-75
2023/11/18 01:24:44;;;;;;;0.80;0.80;;;;;;;5.47;87.51;99392.94;4976783;28;20049;-76
2023/11/18 01:27:10;;;;;;;0.80;0.80;;;;;;;5.39;88.14;99399.50;4989367;28;20468;-76
2023/11/18 01:29:39;;;;;;;0.70;0.70;;;;;;;5.27;88.30;99399.69;4982454;28;20054;-76
2023/11/18 01:32:09;;;;;;;0.90;0.90;;;;;;;5.35;88.05;99408.97;4976759;28;20031;-76
2023/11/18 01:34:38;;;;;;;0.80;0.80;;;;;;;5.35;88.31;99411.63;4978414;28;20663;-76
2023/11/18 01:37:07;;;;;;;0.80;0.80;;;;;;;5.39;87.76;99413.66;4976548;28;20050;-76
2023/11/18 01:39:34;;;;;;;0.80;0.80;;;;;;;5.33;88.30;99417.66;4991702;28;20062;-76
2023/11/18 01:41:59;;;;;;;0.80;0.80;;;;;;;5.44;87.54;99415.66;4975706;28;20159;-76
2023/11/18 01:44:28;;;;;;;0.80;0.80;;;;;;;5.45;87.65;99412.19;4982179;28;20100;-76
2023/11/18 01:46:57;;;;;;;0.80;0.80;;;;;;;5.38;87.22;99418.84;4978624;28;20038;-76
2023/11/18 01:49:23;;;;;;;0.70;0.70;;;;;;;5.35;87.30;99408.06;4990131;28;20637;-76
2023/11/18 01:51:51;;;;;;;0.80;0.80;;;;;;;5.36;87.27;99413.44;4976824;28;20073;-76
2023/11/18 01:54:19;;;;;;;0.80;0.80;;;;;;;5.32;86.99;99410.56;4975796;28;20045;-76
2023/11/18 01:56:48;;;;;;;0.80;0.80;;;;;;;5.42;86.67;99412.03;4973459;28;20039;-76
2023/11/18 01:59:20;;;;;;;0.90;0.90;;;;;;;5.29;87.04;99408.63;4989480;28;20500;-76
2023/11/18 02:01:52;;;;;;;0.85;0.85;;;;;;;5.21;87.30;99409.88;4972021;28;20046;-76
2023/11/18 02:04:19;;;;;;;0.80;0.80;;;;;;;5.02;87.66;99407.84;5011537;22;20412;-81
2023/11/18 02:06:47;;;;;;;0.82;0.82;;;;;;;5.12;87.42;99406.66;4999999;28;20037;-81
2023/11/18 02:09:17;;;;;;;0.80;0.80;;;;;;;5.05;87.44;99405.41;5011041;28;20037;-81
2023/11/18 02:12:09;;;;;;;0.80;0.80;;;;;;;5.04;87.64;99402.66;4987699;28;20040;-81
2023/11/18 02:14:39;;;;;;;0.77;0.77;;;;;;;5.14;86.91;99410.34;5017388;28;20100;-81
2023/11/18 02:17:06;;;;;;;0.90;0.90;;;;;;;5.23;86.44;99402.97;5023125;28;20030;-82
2023/11/18 02:19:34;;;;;;;0.90;0.90;;;;;;;5.06;86.77;99404.56;5012209;28;20362;-82
2023/11/18 02:22:00;;;;;;;0.70;0.70;;;;;;;5.04;87.31;99408.88;5009524;28;20084;-82
2023/11/18 02:24:33;;;;;;;0.80;0.80;;;;;;;5.00;88.10;99417.41;4999547;28;20100;-82
2023/11/18 02:26:59;;;;;;;0.77;0.77;;;;;;;5.16;87.74;99411.34;4996882;28;20042;-81
2023/11/18 02:29:26;;;;;;;0.80;0.80;;;;;;;5.03;87.77;99416.69;5000143;28;20057;-82
2023/11/18 02:31:55;;;;;;;0.80;0.80;;;;;;;5.17;86.91;99420.19;4992838;28;20048;-82
2023/11/18 02:34:27;;;;;;;0.80;0.80;;;;;;;5.12;86.69;99419.91;5012980;28;20042;-80
2023/11/18 02:36:59;;;;;;;0.70;0.70;;;;;;;5.05;87.42;99418.63;5001570;28;20452;-80
2023/11/18 02:39:39;;;;;;;0.90;0.90;;;;;;;4.98;87.60;99416.41;5010979;28;20047;-80
2023/11/18 02:42:10;;;;;;;0.80;0.80;;;;;;;4.94;87.99;99421.44;4976582;28;20048;-80
2023/11/18 02:44:36;;;;;;;0.80;0.80;;;;;;;4.97;87.62;99416.31;4985181;28;20042;-80
2023/11/18 02:47:06;;;;;;;0.77;0.77;;;;;;;4.91;88.45;99415.94;4984253;28;20102;-80
2023/11/18 02:49:34;;;;;;;0.80;0.80;;;;;;;4.85;89.18;99420.03;4971797;28;20034;-81
2023/11/18 02:52:00;;;;;;;0.82;0.82;;;;;;;4.87;88.98;99418.38;4972317;28;20035;-80
2023/11/18 02:54:26;;;;;;;0.88;0.88;;;;;;;4.84;88.90;99412.00;4988942;28;20090;-80
2023/11/18 02:56:51;;;;;;;0.80;0.80;;;;;;;4.94;89.47;99411.75;4972895;28;20093;-79
2023/11/18 02:59:17;;;;;;;0.80;0.80;;;;;;;4.85;88.47;99414.75;4979359;28;20042;-80
2023/11/18 03:01:42;;;;;;;0.75;0.75;;;;;;;4.82;88.10;99409.25;4977300;28;20050;-79
2023/11/18 03:04:08;;;;;;;0.80;0.80;;;;;;;4.84;89.49;99404.09;4980802;28;20130;-79
2023/11/18 03:06:35;;;;;;;0.70;0.70;;;;;;;4.84;89.44;99399.72;4959191;28;20032;-80
2023/11/18 03:09:01;;;;;;;0.80;0.80;;;;;;;4.84;89.34;99402.34;4974053;28;20034;-80
2023/11/18 03:11:29;;;;;;;0.85;0.85;;;;;;;4.92;89.39;99399.25;4976415;28;20403;-80
2023/11/18 03:13:56;;;;;;;0.80;0.80;;;;;;;4.85;89.39;99396.25;4989955;28;20497;-81
2023/11/18 03:16:24;;;;;;;0.80;0.80;;;;;;;4.84;89.19;99398.78;4984220;28;20044;-80
2023/11/18 03:18:50;;;;;;;0.80;0.80;;;;;;;4.78;89.59;99395.75;4976091;28;20030;-82
2023/11/18 03:21:15;;;;;;;0.80;0.80;;;;;;;4.76;89.60;99407.97;4976742;28;20042;-81
2023/11/18 03:23:41;;;;;;;0.80;0.80;;;;;;;4.79;90.12;99400.22;4977779;28;20037;-80
2023/11/18 03:26:08;;;;;;;0.80;0.80;;;;;;;4.88;90.23;99404.34;4981911;28;20077;-81
2023/11/18 03:28:36;;;;;;;0.80;0.80;;;;;;;4.76;90.29;99400.03;4978116;28;20026;-80
2023/11/18 03:31:03;;;;;;;0.77;0.77;;;;;;;4.72;90.54;99400.66;4981261;28;20058;-80
2023/11/18 03:33:29;;;;;;;0.80;0.80;;;;;;;4.65;91.10;99396.72;4980913;28;20035;-80
2023/11/18 03:35:55;;;;;;;0.80;0.80;;;;;;;4.79;91.23;99395.88;4979081;28;20048;-79
2023/11/18 03:38:21;;;;;;;0.80;0.80;;;;;;;4.75;91.11;99399.13;4961613;28;20672;-80
2023/11/18 03:40:47;;;;;;;0.80;0.80;;;;;;;4.79;91.03;99405.50;4986615;28;20092;-79
2023/11/18 03:43:13;;;;;;;0.80;0.80;;;;;;;4.73;91.42;99403.38;4978298;28;20030;-79
2023/11/18 03:45:42;;;;;;;0.85;0.85;;;;;;;4.74;91.29;99404.31;4976056;28;20038;-80
2023/11/18 03:48:07;;;;;;;0.80;0.80;;;;;;;4.86;91.55;99408.63;4979339;28;20105;-79
2023/11/18 03:50:33;;;;;;;0.80;0.80;;;;;;;4.89;91.11;99402.63;4977249;28;20038;-80
2023/11/18 03:53:01;;;;;;;0.80;0.80;;;;;;;4.87;91.47;99396.31;4977907;28;20033;-80
2023/11/18 03:55:27;;;;;;;0.80;0.80;;;;;;;4.86;91.45;99402.44;4978321;28;20069;-80
2023/11/18 03:57:53;;;;;;;0.80;0.80;;;;;;;4.89;91.50;99397.34;4978014;28;20415;-80
2023/11/18 04:00:19;;;;;;;0.70;0.70;;;;;;;5.06;91.17;99412.50;4980938;28;20046;-80
2023/11/18 04:02:46;;;;;;;0.80;0.80;;;;;;;5.05;90.83;99410.69;4977732;28;20026;-80
2023/11/18 04:05:12;;;;;;;0.80;0.80;;;;;;;5.03;90.58;99409.69;4977902;28;20034;-80
2023/11/18 04:07:38;;;;;;;0.88;0.88;;;;;;;4.99;90.35;99410.31;4966795;28;20394;-80
2023/11/18 04:10:09;;;;;;;0.80;0.80;;;;;;;4.92;91.01;99405.44;4979996;28;20093;-80
2023/11/18 04:12:34;;;;;;;0.77;0.77;;;;;;;5.01;91.16;99408.66;4976604;28;20064;-80
2023/11/18 04:15:00;;;;;;;0.75;0.75;;;;;;;5.03;91.13;99406.09;4976582;28;20030;-80
2023/11/18 04:17:28;;;;;;;0.73;0.73;;;;;;;4.91;91.06;99408.00;4977646;28;20038;-79
2023/11/18 04:19:55;;;;;;;0.80;0.80;;;;;;;4.75;91.23;99406.16;4975831;28;20085;-80
2023/11/18 04:22:21;;;;;;;0.80;0.80;;;;;;;4.65;91.62;99409.94;4965657;28;20035;-79
2023/11/18 04:24:47;;;;;;;0.80;0.80;;;;;;;4.73;91.99;99416.59;4966703;28;20722;-79
2023/11/18 04:27:13;;;;;;;0.80;0.80;;;;;;;4.70;91.55;99410.25;4981822;28;20042;-80
2023/11/18 04:29:40;;;;;;;0.80;0.80;;;;;;;4.66;92.18;99410.84;4978008;28;20566;-80
2023/11/18 04:32:08;;;;;;;0.63;0.63;;;;;;;4.65;92.32;99415.22;4977936;28;20054;-80
2023/11/18 04:34:36;;;;;;;0.80;0.80;;;;;;;4.76;92.34;99407.97;4975386;28;20038;-80
2023/11/18 04:37:02;;;;;;;0.80;0.80;;;;;;;4.89;91.75;99414.13;4977872;28;20096;-80
2023/11/18 04:39:28;;;;;;;0.90;0.90;;;;;;;4.88;91.38;99412.28;4974686;28;20768;-80
2023/11/18 04:41:53;;;;;;;0.82;0.82;;;;;;;4.81;91.86;99409.16;4974720;28;20026;-81
2023/11/18 04:44:19;;;;;;;0.80;0.80;;;;;;;4.69;91.77;99411.94;4979364;28;20413;-80
2023/11/18 04:46:45;;;;;;;0.80;0.80;;;;;;;4.60;91.59;99409.66;4978125;28;20042;-81
2023/11/18 04:49:10;;;;;;;0.80;0.80;;;;;;;4.58;91.71;99408.63;4976813;28;20038;-80
2023/11/18 04:51:36;;;;;;;0.80;0.80;;;;;;;4.58;91.79;99413.91;4978415;28;20045;-80
2023/11/18 04:54:03;;;;;;;0.80;0.80;;;;;;;4.52;91.96;99409.97;4974626;28;20544;-82
2023/11/18 04:56:29;;;;;;;0.60;0.60;;;;;;;4.51;91.98;99409.06;4975424;28;20038;-79
2023/11/18 04:58:54;;;;;;;0.90;0.90;;;;;;;4.48;92.42;99413.25;4972904;28;20085;-81
2023/11/18 05:01:19;;;;;;;0.80;0.80;;;;;;;4.50;92.45;99406.31;4977548;28;20044;-81
2023/11/18 05:03:45;;;;;;;0.80;0.80;;;;;;;4.47;92.80;99392.91;4973848;28;20090;-80
2023/11/18 05:06:10;;;;;;;0.80;0.80;;;;;;;4.44;92.99;99396.25;4979421;28;20436;-80
2023/11/18 05:08:36;;;;;;;0.85;0.85;;;;;;;4.49;92.80;99399.19;4979081;28;20468;-80
2023/11/18 05:11:01;;;;;;;0.85;0.85;;;;;;;4.55;92.78;99404.88;4975620;28;20042;-81
2023/11/18 05:13:27;;;;;;;0.80;0.80;;;;;;;4.52;92.76;99409.97;4978637;28;20041;-81
2023/11/18 05:15:54;;;;;;;0.80;0.80;;;;;;;4.72;92.17;99404.22;4975848;28;20042;-79
2023/11/18 05:18:19;;;;;;;0.90;0.90;;;;;;;4.72;91.95;99406.84;4973964;28;20054;-80
2023/11/18 05:20:45;;;;;;;0.90;0.90;;;;;;;4.80;91.83;99421.47;4976080;28;20038;-80
2023/11/18 05:23:11;;;;;;;0.80;0.80;;;;;;;4.78;92.00;99420.44;4975311;28;20830;-80
2023/11/18 05:25:39;;;;;;;0.80;0.80;;;;;;;4.69;91.21;99411.03;4975865;28;20101;-81
2023/11/18 05:28:08;;;;;;;0.80;0.80;;;;;;;4.67;91.08;99423.25;4975157;28;20030;-80
2023/11/18 05:30:37;;;;;;;0.80;0.80;;;;;;;4.63;91.35;99420.41;4976694;28;20042;-80
2023/11/18 05:33:05;;;;;;;0.80;0.80;;;;;;;4.67;91.54;99421.50;4979026;28;20042;-82
2023/11/18 05:35:32;;;;;;;0.80;0.80;;;;;;;4.70;91.43;99426.09;4974521;28;20026;-81
2023/11/18 05:37:58;;;;;;;0.70;0.70;;;;;;;4.77;91.07;99413.34;4974943;28;20155;-81
2023/11/18 05:40:25;;;;;;;0.70;0.70;;;;;;;4.60;91.20;99414.03;4977301;28;20077;-81
2023/11/18 05:42:51;;;;;;;0.90;0.90;;;;;;;4.49;91.34;99401.84;4973313;28;20068;-81
2023/11/18 05:45:27;;;;;;;0.90;0.90;;;;;;;4.44;91.85;99406.84;4975939;28;20043;-80
2023/11/18 05:47:56;;;;;;;0.80;0.80;;;;;;;4.40;91.58;99411.81;4974976;28;20034;-82
2023/11/18 05:50:24;;;;;;;0.85;0.85;;;;;;;4.32;92.19;99417.53;4976314;28;20019;-82
2023/11/18 05:52:50;;;;;;;0.80;0.80;;;;;;;4.29;92.85;99412.06;4977268;28;20116;-82
2023/11/18 05:55:16;;;;;;;0.70;0.70;;;;;;;4.25;92.99;99410.03;4959120;28;20039;-81
2023/11/18 05:57:45;;;;;;;0.80;0.80;;;;;;;4.23;92.83;99411.66;4976233;28;20050;-81
2023/11/18 06:00:15;;;;;;;0.90;0.90;;;;;;;3.91;92.41;99400.72;4978895;28;20068;-82
2023/11/18 06:02:42;;;;;;;0.80;0.80;;;;;;;3.79;92.72;99398.19;4977831;28;20038;-81
2023/11/18 06:05:08;;;;;;;0.80;0.80;;;;;;;3.78;93.42;99397.25;4972535;28;20035;-82
2023/11/18 06:07:34;;;;;;;0.90;0.90;;;;;;;3.63;93.67;99396.25;4981552;28;20403;-81
2023/11/18 06:10:01;;;;;;;0.80;0.80;;;;;;;3.43;93.40;99405.47;4977996;28;20129;-81
2023/11/18 06:12:27;;;;;;;0.80;0.80;;;;;;;3.25;94.48;99399.84;4976361;28;20072;-81
2023/11/18 06:14:52;;;;;;;0.80;0.80;;;;;;;3.20;95.32;99393.34;4972329;28;20046;-81
2023/11/18 06:17:18;;;;;;;0.90;0.90;;;;;;;2.93;95.16;99394.09;4974334;28;20038;-80
2023/11/18 06:19:44;;;;;;;0.90;0.90;;;;;;;2.93;95.80;99395.00;4974839;28;20558;-81
2023/11/18 06:22:10;;;;;;;0.80;0.80;;;;;;;2.88;96.02;99384.97;4958304;28;20027;-81
2023/11/18 06:24:39;;;;;;;0.90;0.90;;;;;;;2.91;96.40;99391.34;4974850;28;20029;-81
2023/11/18 06:27:13;;;;;;;0.80;0.80;;;;;;;2.66;96.61;99404.53;4975454;28;20041;-81
2023/11/18 06:29:40;;;;;;;0.90;0.90;;;;;;;2.77;96.87;99402.63;4974599;28;20086;-81
2023/11/18 06:32:05;;;;;;;1.00;1.00;;;;;;;2.65;96.90;99402.69;4978173;28;20038;-81
2023/11/18 06:34:31;;;;;;;0.90;0.90;;;;;;;2.41;96.70;99414.13;4975762;28;20164;-80
2023/11/18 06:36:57;;;;;;;0.88;0.88;;;;;;;2.45;97.14;99419.72;4976410;28;20125;-80
2023/11/18 06:39:29;;;;;;;0.90;0.90;;;;;;;2.21;96.87;99418.88;4980462;28;20037;-81
2023/11/18 06:41:56;;;;;;;1.00;1.00;;;;;;;2.35;97.50;99406.72;4988840;28;20118;-81
2023/11/18 06:44:23;;;;;;;;;;;;;;;2.30;97.22;99419.53;4977706;28;20046;-80
2023/11/18 06:46:50;;;;;;;1.00;1.00;;;;;;;2.34;97.51;99428.56;4977786;28;19925;-80
2023/11/18 06:49:16;;;;;;;0.90;0.90;;;;;;;2.19;97.22;99427.44;4977825;28;20042;-81
2023/11/18 06:51:42;;;;;;;1.00;1.00;;;;;;;2.33;97.46;99432.00;4976848;28;20042;-80
2023/11/18 06:54:08;;;;;;;0.90;0.90;;;;;;;2.42;97.36;99432.66;4974556;28;20042;-80
2023/11/18 06:56:38;;;;;;;0.98;0.98;;;;;;;2.35;97.38;99434.72;4972199;28;20040;-80
2023/11/18 06:59:07;;;;;;;0.90;0.90;;;;;;;2.29;97.17;99433.47;4971042;28;20039;-80
2023/11/18 07:01:38;;;;;;;0.90;0.90;;;;;;;2.48;96.75;99427.81;4970876;28;20034;-80
2023/11/18 07:04:08;;;;;;;1.00;1.00;;;;;;;2.65;97.29;99429.03;4977004;28;20046;-80
2023/11/18 07:06:38;;;;;;;1.00;1.00;;;;;;;2.79;96.91;99425.66;4971108;28;20066;-81
2023/11/18 07:09:17;;;;;;;1.00;1.00;;;;;;;2.86;96.48;99427.00;4979154;28;20026;-81
2023/11/18 07:11:43;;;;;;;0.90;0.90;;;;;;;3.07;95.63;99417.06;4974575;28;20109;-80
2023/11/18 07:14:10;;;;;;;0.90;0.90;;;;;;;3.23;95.07;99419.03;4973221;28;20427;-80
2023/11/18 07:16:38;;;;;;;1.02;1.02;;;;;;;3.28;94.81;99431.72;4978949;28;20108;-81
2023/11/18 07:19:03;;;;;;;0.93;0.93;;;;;;;3.37;94.11;99430.53;4974974;28;20035;-81
2023/11/18 07:21:29;;;;;;;0.90;0.90;;;;;;;3.52;93.81;99437.75;4967441;28;20073;-79
2023/11/18 07:23:54;;;;;;;1.00;1.00;;;;;;;3.71;93.22;99436.34;4957552;28;20102;-81
2023/11/18 07:26:20;;;;;;;0.90;0.90;;;;;;;3.58;92.61;99439.88;4972937;28;20042;-81
2023/11/18 07:28:45;;;;;;;0.80;0.80;;;;;;;3.56;92.38;99452.97;4976308;28;20718;-81
2023/11/18 07:31:12;;;;;;;0.98;0.98;;;;;;;3.61;92.33;99453.28;4974394;28;20392;-80
2023/11/18 07:33:37;;;;;;;0.90;0.90;;;;;;;3.72;92.10;99447.00;4977384;28;20065;-80
2023/11/18 07:36:05;;;;;;;0.80;0.80;;;;;;;3.93;91.34;99454.53;4974019;28;20062;-80
2023/11/18 07:38:32;;;;;;;0.93;0.93;;;;;;;3.95;91.56;99458.19;4972305;28;20473;-81
2023/11/18 07:40:58;;;;;;;0.90;0.90;;;;;;;3.98;91.39;99440.84;4974627;28;20090;-81
2023/11/18 07:43:23;;;;;;;0.90;0.90;;;;;;;4.05;91.34;99440.41;4978497;28;20648;-79
2023/11/18 07:45:52;;;;;;;0.80;0.80;;;;;;;4.10;91.49;99435.44;4972232;28;20137;-81
2023/11/18 07:48:17;;;;;;;0.90;0.90;;;;;;;4.26;90.53;99427.69;4979061;28;20034;-80
2023/11/18 07:50:47;;;;;;;0.90;0.90;;;;;;;4.36;90.13;99426.59;4973202;28;20511;-80
2023/11/18 07:53:13;;;;;;;1.00;1.00;;;;;;;4.59;89.41;99406.88;4979983;28;20419;-81
2023/11/18 07:55:39;;;;;;;1.10;1.10;;;;;;;4.98;88.46;99408.47;4975185;28;20113;-79
2023/11/18 07:58:10;;;;;;;0.90;0.90;;;;;;;5.29;88.56;99419.19;4974377;28;20125;-80
2023/11/18 08:00:44;;;;;;;1.00;1.00;;;;;;;5.98;87.30;99418.03;4976891;28;20121;-80
2023/11/18 08:03:14;;;;;;;0.90;0.90;;;;;;;6.71;84.26;99415.06;4975273;28;20051;-79
2023/11/18 08:05:45;;;;;;;0.80;0.80;;;;;;;7.18;83.71;99409.69;4977975;28;20058;-79
2023/11/18 08:08:11;;;;;;;0.80;0.80;;;;;;;6.60;81.55;99420.69;4978043;28;20038;-79
2023/11/18 08:10:38;;;;;;;0.70;0.70;;;;;;;6.32;82.14;99431.47;4981619;28;20120;-82
2023/11/18 08:13:08;;;;;;;0.80;0.80;;;;;;;5.96;84.32;99437.31;4977896;28;20049;-81
2023/11/18 08:15:45;;;;;;;0.80;0.80;;;;;;;5.96;85.04;99435.59;4977593;28;20566;-81
2023/11/18 08:18:11;;;;;;;0.70;0.70;;;;;;;6.03;83.37;99428.88;4982865;28;20049;-81
2023/11/18 08:20:37;;;;;;;0.80;0.80;;;;;;;5.65;82.24;99430.16;4977088;28;20027;-81
2023/11/18 08:23:04;;;;;;;0.80;0.80;;;;;;;5.76;83.22;99430.81;4978972;28;20043;-81
2023/11/18 08:25:32;;;;;;;0.80;0.80;;;;;;;6.01;81.67;99430.56;4978722;28;20037;-81
2023/11/18 08:27:58;;;;;;;0.80;0.80;;;;;;;5.94;82.05;99425.72;4984691;28;20030;-80
2023/11/18 08:30:23;;;;;;;0.80;0.80;;;;;;;6.12;81.37;99429.44;4979019;28;20046;-81
2023/11/18 08:32:49;;;;;;;0.80;0.80;;;;;;;5.89;81.27;99429.00;4978445;28;20491;-81
2023/11/18 08:35:15;;;;;;;0.80;0.80;;;;;;;6.04;81.49;99439.59;4978718;28;20401;-82
2023/11/18 08:37:47;;;;;;;0.80;0.80;;;;;;;6.57;81.48;99424.94;4979667;28;20509;-81
2023/11/18 08:40:21;;;;;;;0.77;0.77;;;;;;;6.47;80.37;99417.25;4979099;28;20034;-82
2023/11/18 08:42:51;;;;;;;0.80;0.80;;;;;;;6.97;78.73;99408.56;4984727;28;20431;-81
2023/11/18 08:45:17;;;;;;;0.70;0.70;;;;;;;7.17;77.86;99415.84;4984655;28;21059;-80
2023/11/18 08:47:44;;;;;;;0.80;0.80;;;;;;;6.83;76.72;99421.97;4976123;28;20046;-80
2023/11/18 08:50:12;;;;;;;0.73;0.73;;;;;;;7.15;76.19;99422.81;4976240;28;20484;-80
2023/11/18 08:52:43;;;;;;;0.73;0.73;;;;;;;7.50;75.83;99421.09;4978235;28;20035;-80
2023/11/18 08:55:17;;;;;;;0.75;0.75;;;;;;;6.80;77.22;99421.78;4977551;28;20033;-80
2023/11/18 08:57:58;;;;;;;0.70;0.70;;;;;;;6.79;77.78;99416.41;4974814;28;20050;-80
2023/11/18 09:03:34;;;;;;;0.70;0.70;;;;;;;7.27;76.83;99407.53;4975817;28;20046;-80
2023/11/18 09:06:17;;;;;;;0.70;0.70;;;;;;;7.17;75.62;99402.56;4981459;28;20042;-80
2023/11/18 09:08:43;;;;;;;0.70;0.70;;;;;;;7.54;74.39;99393.88;4980855;28;20492;-79
2023/11/18 09:11:14;;;;;;;0.80;0.80;;;;;;;7.66;73.86;99395.41;4982084;28;20035;-80
2023/11/18 09:13:42;;;;;;;0.70;0.70;;;;;;;8.20;71.49;99408.75;4984874;28;20038;-80
2023/11/18 09:16:08;;;;;;;0.70;0.70;;;;;;;7.53;72.32;99419.53;4980639;28;20089;-80
2023/11/18 09:18:35;;;;;;;0.70;0.70;;;;;;;8.59;71.10;99403.56;4973556;28;20469;-80
2023/11/18 09:21:02;;;;;;;0.70;0.70;;;;;;;9.62;67.97;99404.72;4968162;28;20034;-80
2023/11/18 09:23:29;;;;;;;;;;;;;;;9.70;67.38;99407.75;4971324;28;20035;-81
2023/11/18 09:25:54;;;;;;;0.68;0.68;;;;;;;8.70;69.72;99407.63;4974467;28;20579;-80
2023/11/18 09:28:22;;;;;;;0.60;0.60;;;;;;;9.21;68.31;99401.16;4971185;28;20595;-80
2023/11/18 09:30:53;;;;;;;0.68;0.68;;;;;;;9.25;67.85;99395.13;4975079;28;20038;-80
2023/11/18 09:33:32;;;;;;;0.70;0.70;;;;;;;9.37;67.36;99410.75;4974554;28;20050;-80
2023/11/18 09:36:02;;;;;;;0.60;0.60;;;;;;;9.62;65.90;99409.16;4969325;28;20053;-80
2023/11/18 09:38:32;;;;;;;0.50;0.50;;;;;;;10.35;64.59;99398.97;4975865;28;20042;-81
2023/11/18 09:41:02;;;;;;;0.60;0.60;;;;;;;8.90;67.96;99404.16;4969983;28;20057;-79
2023/11/18 09:43:36;;;;;;;0.60;0.60;;;;;;;8.58;70.18;99412.41;4974101;28;20034;-79
2023/11/18 09:46:12;;;;;;;0.50;0.50;;;;;;;9.77;66.27;99413.41;4976638;28;20031;-80
2023/11/18 09:48:59;;;;;;;0.63;0.63;;;;;;;9.57;66.05;99410.72;4968676;28;20415;-80
2023/11/18 09:51:35;;;;;;;0.60;0.60;;;;;;;10.65;62.57;99395.72;4970151;28;20034;-81
2023/11/18 09:54:07;;;;;;;0.60;0.60;;;;;;;9.92;64.28;99405.16;4975478;28;20031;-81
2023/11/18 09:57:08;;;;;;;0.60;0.60;;;;;;;8.89;67.95;99405.00;4970262;28;20080;-80
2023/11/18 09:59:58;;;;;;;0.60;0.60;;;;;;;9.55;64.88;99407.09;4970501;28;20723;-80
2023/11/18 10:02:24;;;;;;;0.60;0.60;;;;;;;9.31;66.09;99404.25;4974052;28;20140;-81
2023/11/18 10:04:56;;;;;;;0.60;0.60;;;;;;;9.90;64.36;99403.25;4969835;28;20777;-79
2023/11/18 10:07:26;;;;;;;0.60;0.60;;;;;;;9.20;66.93;99407.34;4967791;28;20050;-80
2023/11/18 10:09:57;;;;;;;0.60;0.60;;;;;;;9.57;65.77;99394.72;4974507;28;20034;-80
2023/11/18 10:12:23;;;;;;;0.60;0.60;;;;;;;9.08;66.44;99389.88;4965889;28;20042;-79
2023/11/18 10:14:52;;;;;;;0.60;0.60;;;;;;;10.84;62.34;99386.66;4972708;28;20041;-79
2023/11/18 10:17:19;;;;;;;0.60;0.60;;;;;;;10.26;64.51;99390.59;4965169;28;20034;-79
2023/11/18 10:20:12;;;;;;;0.60;0.60;;;;;;;10.65;62.69;99390.38;4968985;28;20078;-78
2023/11/18 10:22:38;;;;;;;0.50;0.50;;;;;;;10.88;60.81;99392.19;4976275;28;20050;-79
2023/11/18 10:25:06;;;;;;;0.60;0.60;;;;;;;11.27;60.00;99394.53;4971565;28;20035;-79
2023/11/18 10:27:34;;;;;;;0.50;0.50;;;;;;;11.08;60.70;99392.03;4974354;28;20084;-79
2023/11/18 10:30:18;;;;;;;0.50;0.50;;;;;;;11.09;61.56;99388.50;4975891;28;20034;-79
2023/11/18 10:32:56;;;;;;;0.60;0.60;;;;;;;10.31;63.40;99393.47;4969076;28;20038;-80
2023/11/18 10:35:21;;;;;;;0.50;0.50;;;;;;;9.87;64.95;99390.72;4969922;28;20037;-78
2023/11/18 10:37:49;;;;;;;0.60;0.60;;;;;;;9.52;66.29;99392.75;4971314;28;20045;-80
2023/11/18 10:40:15;;;;;;;0.60;0.60;;;;;;;9.34;65.02;99381.31;4968760;28;20038;-79
2023/11/18 10:42:42;;;;;;;0.50;0.50;;;;;;;9.58;64.82;99380.56;4973416;28;20641;-79
2023/11/18 10:45:12;;;;;;;0.55;0.55;;;;;;;8.80;66.77;99379.72;4980888;28;20038;-80
2023/11/18 10:47:42;;;;;;;0.60;0.60;;;;;;;9.07;67.56;99386.31;4969363;28;20226;-80
2023/11/18 10:50:09;;;;;;;0.60;0.60;;;;;;;9.63;64.15;99379.00;4975550;28;20043;-79
2023/11/18 10:52:37;;;;;;;0.63;0.63;;;;;;;9.45;66.57;99377.38;4971870;28;20125;-78
2023/11/18 10:55:11;;;;;;;0.60;0.60;;;;;;;9.40;65.32;99370.94;4974441;28;20043;-79
2023/11/18 10:57:38;;;;;;;0.60;0.60;;;;;;;9.27;66.48;99373.91;4968701;28;20125;-79
2023/11/18 11:00:12;;;;;;;;;;;;;;;9.22;66.49;99367.47;4967229;28;20058;-78
2023/11/18 11:02:41;;;;;;;0.60;0.60;;;;;;;9.04;67.50;99359.53;4981870;28;19921;-79
2023/11/18 11:05:07;;;;;;;0.60;0.60;;;;;;;9.13;67.51;99370.59;4976056;28;20074;-79
2023/11/18 11:07:33;;;;;;;0.70;0.70;;;;;;;8.86;66.51;99364.03;4960007;28;20030;-79
2023/11/18 11:10:04;;;;;;;0.60;0.60;;;;;;;9.07;68.41;99366.78;4973884;28;20027;-79
2023/11/18 11:12:51;;;;;;;0.60;0.60;;;;;;;8.82;67.80;99354.09;4969059;28;20656;-79
2023/11/18 11:15:22;;;;;;;0.60;0.60;;;;;;;8.36;69.62;99367.84;4973030;28;20043;-79
2023/11/18 11:18:08;;;;;;;0.60;0.60;;;;;;;8.62;66.85;99361.13;4969267;28;20107;-81
2023/11/18 11:20:42;;;;;;;0.60;0.60;;;;;;;9.04;65.84;99359.53;4968451;28;20043;-79
2023/11/18 11:23:55;;;;;;;0.60;0.60;;;;;;;9.30;65.67;99363.38;4974534;28;20035;-79
2023/11/18 11:26:27;;;;;;;0.60;0.60;;;;;;;8.48;66.29;99361.44;4936930;28;20147;-80
2023/11/18 11:29:02;;;;;;;0.70;0.70;;;;;;;8.84;66.67;99350.66;4964377;28;20060;-79
2023/11/18 11:31:41;;;;;;;0.60;0.60;;;;;;;8.90;65.92;99350.94;4976435;28;20319;-79
2023/11/18 11:34:16;;;;;;;0.70;0.70;;;;;;;8.88;65.72;99347.31;4980688;28;20034;-79
2023/11/18 11:36:50;;;;;;;0.60;0.60;;;;;;;9.17;65.33;99340.63;4970011;28;20216;-79
2023/11/18 11:39:21;;;;;;;0.70;0.70;;;;;;;8.86;67.48;99343.69;4976691;28;20035;-79
2023/11/18 11:41:51;;;;;;;0.60;0.60;;;;;;;8.93;65.10;99337.78;4963828;28;20570;-80
2023/11/18 11:44:20;;;;;;;0.63;0.63;;;;;;;8.51;67.12;99341.13;4972852;28;20065;-80
2023/11/18 11:46:52;;;;;;;0.60;0.60;;;;;;;8.55;66.01;99335.09;4984848;28;20038;-80
2023/11/18 11:49:27;;;;;;;0.70;0.70;;;;;;;8.63;66.61;99329.31;4971526;28;20989;-78
2023/11/18 11:52:23;;;;;;;0.60;0.60;;;;;;;9.22;65.12;99315.13;4972404;28;20041;-81